Latest Weather Observations for Inglewood

IDQ60801

Issued at 2:05 am EST Wednesday 3 September 2014 (issued every 30 minutes, with the page automatically refreshed every 10 minutes)

About weather observations | Map of weather stations | Latest weather observations for QLD | Other Formats
Station Details ID: 041097 Name: INGLEWOOD FOREST Lat: -28.34 Lon: 150.94 Height: 379.0 m
Data from the previous 72 hours. | See also: Recent months at Inglewood
Date/Time
EST
Temp
°C
App
Temp
°C
Dew
Point
Rel
Hum
%
Delta-T
°C
Wind Press
QNH
hPa
Press
MSL
hPa
Rain
since 9 am
mm
Dir
 
Spd
km/h
Gust
km/h
Spd
kts
Gust
kts
03/02:00am - - - - - SW 19 33 10 18 - - 0.0
03/01:30am - - - - - SW 20 39 11 21 - - 0.0
03/01:00am - - - - - SW 17 28 9 15 - - 0.0
03/12:30am - - - - - WSW 17 26 9 14 - - 0.0
03/12:00am - - - - - SW 17 28 9 15 - - 0.0
 
Date/Time
EST
Temp
°C
App
Temp
°C
Dew
Point
Rel
Hum
%
Delta-T
°C
Wind Press
QNH
hPa
Press
MSL
hPa
Rain
since 9 am
mm
Dir
 
Spd
km/h
Gust
km/h
Spd
kts
Gust
kts
02/11:30pm - - - - - SW 17 26 9 14 - - 0.0
02/11:00pm - - - - - SW 17 28 9 15 - - 0.0
02/10:30pm - - - - - WSW 17 26 9 14 - - 0.0
02/10:00pm - - - - - WSW 15 22 8 12 - - 0.0
02/09:30pm - - - - - WSW 15 20 8 11 - - 0.0
02/09:00pm - - - - - WSW 17 26 9 14 - - 0.0
02/08:30pm - - - - - WSW 17 33 9 18 - - 0.0
02/08:00pm - - - - - SW 19 30 10 16 - - 0.0
02/07:30pm - - - - - SW 22 39 12 21 - - 0.0
02/07:00pm - - - - - SW 20 33 11 18 - - 0.0
02/06:30pm - - - - - SW 22 43 12 23 - - 0.0
02/06:00pm - - - - - SW 24 43 13 23 - - 0.0
02/05:30pm - - - - - SW 20 39 11 21 - - 0.0
02/05:00pm - - - - - SW 28 43 15 23 - - 0.0
02/04:32pm - - - - - SW 28 46 15 25 - - 0.0
02/04:30pm - - - - - SW 30 46 16 25 - - 0.0
02/04:00pm - - - - - SW 32 50 17 27 - - 0.0
02/03:30pm - - - - - SW 28 46 15 25 - - 0.0
02/03:00pm - - - - - W 28 44 15 24 - - 0.0
02/02:31pm - - - - - SW 28 46 15 25 - - 0.0
02/02:30pm - - - - - SW 26 46 14 25 - - 0.0
02/02:11pm - - - - - WSW 28 50 15 27 - - 0.0
02/02:00pm - - - - - WSW 24 44 13 24 - - 0.0
02/01:30pm - - - - - WSW 30 54 16 29 - - 0.0
02/01:00pm - - - - - WSW 28 46 15 25 - - 0.0
02/12:44pm - - - - - WSW 28 50 15 27 - - 0.0
02/12:30pm - - - - - WSW 24 41 13 22 - - 0.0
02/12:21pm - - - - - SW 28 46 15 25 - - 0.0
02/12:00pm - - - - - WSW 22 35 12 19 - - 0.0
02/11:30am - - - - - W 19 26 10 14 - - 0.0
02/11:00am - - - - - W 22 35 12 19 - - 0.0
02/10:30am - - - - - W 24 37 13 20 - - 0.0
02/10:00am - - - - - W 24 35 13 19 - - 0.0
02/09:30am - - - - - WNW 22 39 12 21 - - 0.0
02/09:00am - - - - - WNW 24 41 13 22 - - 0.0
02/08:30am - - - - - NNW 20 39 11 21 - - 0.0
02/08:00am - - - - - NNW 22 37 12 20 - - 0.0
02/07:30am - - - - - NNW 20 35 11 19 - - 0.0
02/07:00am - - - - - NNW 20 32 11 17 - - 0.0
02/06:30am - - - - - NNW 20 39 11 21 - - 0.0
02/06:00am - - - - - NNW 20 39 11 21 - - 0.0
02/05:30am - - - - - NNW 20 32 11 17 - - 0.0
02/05:00am - - - - - NNW 20 32 11 17 - - 0.0
02/04:30am - - - - - NNW 20 35 11 19 - - 0.0
02/04:00am - - - - - N 17 28 9 15 - - 0.0
02/03:30am - - - - - N 17 24 9 13 - - 0.0
02/03:00am - - - - - N 15 22 8 12 - - 0.0
02/02:30am - - - - - N 17 28 9 15 - - 0.0
02/02:00am - - - - - N 15 24 8 13 - - 0.0
02/01:30am - - - - - N 15 20 8 11 - - 0.0
02/01:00am - - - - - N 11 17 6 9 - - 0.0
02/12:30am - - - - - N 9 13 5 7 - - 0.0
02/12:00am - - - - - NE 13 19 7 10 - - 0.0
 
Date/Time
EST
Temp
°C
App
Temp
°C
Dew
Point
Rel
Hum
%
Delta-T
°C
Wind Press
QNH
hPa
Press
MSL
hPa
Rain
since 9 am
mm
Dir
 
Spd
km/h
Gust
km/h
Spd
kts
Gust
kts
01/11:30pm - - - - - ENE 9 11 5 6 - - 0.0
01/11:00pm - - - - - E 11 13 6 7 - - 0.0
01/10:30pm - - - - - E 11 11 6 6 - - 0.0
01/10:00pm - - - - - E 11 13 6 7 - - 0.0
01/09:30pm - - - - - ESE 11 13 6 7 - - 0.0
01/09:00pm - - - - - SSE 9 11 5 6 - - 0.0
01/08:30pm - - - - - N 2 6 1 3 - - 0.0
01/08:00pm - - - - - N 6 7 3 4 - - 0.0
01/07:30pm - - - - - WNW 4 6 2 3 - - 0.0
01/07:00pm - - - - - WNW 7 7 4 4 - - 0.0
01/06:30pm - - - - - W 7 9 4 5 - - 0.0
01/06:00pm - - - - - WNW 9 11 5 6 - - 0.0
01/05:30pm - - - - - NW 7 13 4 7 - - 0.0
01/05:00pm - - - - - WNW 9 15 5 8 - - 0.0
01/04:30pm - - - - - W 7 15 4 8 - - 0.0
01/04:00pm - - - - - WNW 13 19 7 10 - - 0.0
01/03:30pm - - - - - WNW 13 24 7 13 - - 0.0
01/03:00pm - - - - - WNW 17 28 9 15 - - 0.0
01/02:30pm - - - - - NNW 13 22 7 12 - - 0.0
01/02:00pm - - - - - WSW 15 24 8 13 - - 0.0
01/01:30pm - - - - - W 11 20 6 11 - - 0.0
01/01:00pm - - - - - WNW 15 28 8 15 - - 0.0
01/12:30pm - - - - - WNW 13 19 7 10 - - 0.0
01/12:00pm - - - - - NNW 15 24 8 13 - - 0.0
01/11:30am - - - - - W 11 20 6 11 - - 0.0
01/11:00am - - - - - NW 11 20 6 11 - - 0.0
01/10:30am - - - - - NW 9 17 5 9 - - 0.0
01/10:00am - - - - - W 9 13 5 7 - - 0.0
01/09:30am - - - - - NW 9 17 5 9 - - 0.0
01/09:00am - - - - - NW 11 17 6 9 - - 0.0
01/08:30am - - - - - NNW 13 19 7 10 - - 0.0
01/08:00am - - - - - NNW 13 19 7 10 - - 0.0
01/07:30am - - - - - N 9 15 5 8 - - 0.0
01/07:00am - - - - - NNE 9 17 5 9 - - 0.0
01/06:30am - - - - - NNE 11 15 6 8 - - 0.0
01/06:00am - - - - - NE 9 17 5 9 - - 0.0
01/05:30am - - - - - NE 11 17 6 9 - - 0.0
01/05:00am - - - - - ENE 11 15 6 8 - - 0.0
01/04:30am - - - - - NNE 11 19 6 10 - - 0.0
01/04:00am - - - - - NNE 13 17 7 9 - - 0.0
01/03:30am - - - - - NNE 11 15 6 8 - - 0.0
01/03:00am - - - - - NNE 11 15 6 8 - - 0.0
01/02:30am - - - - - NE 11 17 6 9 - - 0.0
01/02:00am - - - - - NE 9 13 5 7 - - 0.0
01/01:30am - - - - - NE 9 11 5 6 - - 0.0
01/01:00am - - - - - NE 9 15 5 8 - - 0.0
01/12:30am - - - - - N 7 9 4 5 - - 0.0
01/12:00am - - - - - SE 9 11 5 6 - - 0.0
 
Date/Time
EST
Temp
°C
App
Temp
°C
Dew
Point
Rel
Hum
%
Delta-T
°C
Wind Press
QNH
hPa
Press
MSL
hPa
Rain
since 9 am
mm
Dir
 
Spd
km/h
Gust
km/h
Spd
kts
Gust
kts
31/11:30pm - - - - - SE 9 11 5 6 - - 0.0
31/11:00pm - - - - - S 11 13 6 7 - - 0.0
31/10:30pm - - - - - S 11 13 6 7 - - 0.0
31/10:00pm - - - - - SW 11 11 6 6 - - 0.0
31/09:30pm - - - - - SSW 11 13 6 7 - - 0.0
31/09:00pm - - - - - SSW 11 13 6 7 - - 0.0
31/08:30pm - - - - - SSW 11 11 6 6 - - 0.0
31/08:00pm - - - - - SSW 11 13 6 7 - - 0.0
31/07:30pm - - - - - SW 11 13 6 7 - - 0.0
31/07:00pm - - - - - SW 11 13 6 7 - - 0.0
31/06:30pm - - - - - WSW 11 13 6 7 - - 0.0
31/06:00pm - - - - - WSW 11 13 6 7 - - 0.0
31/05:30pm - - - - - WSW 7 11 4 6 - - 0.0
31/05:00pm - - - - - SW 13 19 7 10 - - 0.0
31/04:30pm - - - - - SW 9 15 5 8 - - 0.0
31/04:00pm - - - - - W 9 13 5 7 - - 0.0
31/03:30pm - - - - - WNW 13 19 7 10 - - 0.0
31/03:00pm - - - - - SSW 13 20 7 11 - - 0.0
31/02:30pm - - - - - WSW 11 19 6 10 - - 0.0
31/02:00pm - - - - - S 11 19 6 10 - - 0.0
31/01:30pm - - - - - SW 11 20 6 11 - - 0.0
31/01:00pm - - - - - WSW 11 19 6 10 - - 0.0
31/12:30pm - - - - - NW 11 15 6 8 - - 0.0
31/12:00pm - - - - - NW 13 20 7 11 - - 0.0
31/11:30am - - - - - NW 13 20 7 11 - - 0.0
31/11:00am - - - - - WNW 11 20 6 11 - - 0.0
31/10:30am - - - - - WNW 9 17 5 9 - - 0.0
31/10:00am - - - - - NNW 7 15 4 8 - - 0.0
31/09:30am - - - - - NW 9 13 5 7 - - 0.0
31/09:00am - - - - - ENE 6 11 3 6 - - 0.0
31/08:30am - - - - - ENE 6 9 3 5 - - 0.0
31/08:00am - - - - - ENE 6 9 3 5 - - 0.0
31/07:30am - - - - - ENE 2 7 1 4 - - 0.0
31/07:00am - - - - - ENE 2 6 1 3 - - 0.0
31/06:30am - - - - - NNE 7 9 4 5 - - 0.0
31/06:00am - - - - - NNE 7 9 4 5 - - 0.0
31/05:30am - - - - - N 7 9 4 5 - - 0.0
31/05:00am - - - - - NNW 6 7 3 4 - - 0.0
31/04:30am - - - - - N 6 7 3 4 - - 0.0
31/04:00am - - - - - ESE 6 9 3 5 - - 0.0
31/03:30am - - - - - ESE 7 11 4 6 - - 0.0
31/03:00am - - - - - SSE 7 9 4 5 - - 0.0
31/02:30am - - - - - S 7 7 4 4 - - 0.0

Other Formats:

Comma delimited format used in spreadsheet applications
http://www.bom.gov.au/fwo/IDQ60801/IDQ60801.95573.axf

JavaScript Object Notation format (JSON) in row-major order
http://www.bom.gov.au/fwo/IDQ60801/IDQ60801.95573.json